Time;durP1;ratioP1;P1;durP2;ratioP2;P2;SDS_P1;SDS_P2;PMS_P1;PMS_P2;Temp;Humidity;BMP_temperature;BMP_pressure;BME280_temperature;BME280_humidity;BME280_pressure;Samples;Min_cycle;Max_cycle;Signal;HPM_P1;HPM_P2
2023/12/27 00:00:04;;;;;;;;;;;;;;;13.40;61.71;99412.13;2091428;28;19924;-62
2023/12/27 00:01:05;;;;;;;;;;;;;;;13.40;61.71;99412.97;2095535;28;19920;-62
2023/12/27 00:02:07;;;;;;;;;;;;;;;13.40;61.79;99412.13;2092420;28;19927;-63
2023/12/27 00:03:07;;;;;;;;;;;;;;;13.41;61.67;99400.47;2092866;28;19974;-62
2023/12/27 00:04:08;;;;;;;;;;;;;;;13.40;61.86;99406.81;2093347;28;20437;-63
2023/12/27 00:05:09;;;;;;;;;;;;;;;13.40;61.51;99404.16;2092198;28;19931;-62
2023/12/27 00:06:10;;;;;;;;;;;;;;;13.39;61.63;99407.78;2090993;28;19920;-62
2023/12/27 00:07:12;;;;;;;;;;;;;;;13.40;61.82;99407.63;2090505;28;19930;-63
2023/12/27 00:08:12;;;;;;;;;;;;;;;13.40;61.86;99412.13;2092935;28;19920;-63
2023/12/27 00:09:14;;;;;;;;;;;;;;;13.40;61.83;99406.81;2091369;28;19952;-64
2023/12/27 00:10:15;;;;;;;;;;;;;;;13.41;61.57;99405.81;2090099;28;19939;-63
2023/12/27 00:11:17;;;;;;;;;;;;;;;13.40;61.70;99410.31;2092004;28;19959;-63
2023/12/27 00:12:18;;;;;;;;;;;;;;;13.40;61.79;99410.31;2092026;28;19947;-63
2023/12/27 00:13:19;;;;;;;;;;;;;;;13.43;61.56;99409.16;2093099;28;20411;-63
2023/12/27 00:14:21;;;;;;;;;;;;;;;13.41;61.63;99409.31;2092329;28;20397;-63
2023/12/27 00:15:23;;;;;;;;;;;;;;;13.40;61.74;99406.81;2090172;28;20016;-62
2023/12/27 00:16:23;;;;;;;;;;;;;;;13.41;61.79;99409.31;2092461;28;20009;-63
2023/12/27 00:17:25;;;;;;;;;;;;;;;13.40;62.01;99410.31;2092094;28;19929;-63
2023/12/27 00:18:26;;;;;;;;;;;;;;;13.41;61.66;99411.13;2091878;28;19928;-63
2023/12/27 00:19:26;;;;;;;;;;;;;;;13.41;61.64;99419.13;2090843;28;20393;-63
2023/12/27 00:20:28;;;;;;;;;;;;;;;13.39;61.66;99419.25;2094070;28;19990;-63
2023/12/27 00:21:28;;;;;;;;;;;;;;;13.40;61.67;99412.97;2094441;28;19951;-63
2023/12/27 00:22:30;;;;;;;;;;;;;;;13.39;61.79;99407.78;2090816;28;19964;-62
2023/12/27 00:23:31;;;;;;;;;;;;;;;13.38;61.71;99406.09;2092535;28;19927;-63
2023/12/27 00:24:33;;;;;;;;;;;;;;;13.38;61.74;99416.78;2091060;28;20368;-63
2023/12/27 00:25:33;;;;;;;;;;;;;;;13.39;61.93;99413.09;2091440;28;19925;-63
2023/12/27 00:26:35;;;;;;;;;;;;;;;13.39;61.80;99416.59;2091943;28;19935;-63
2023/12/27 00:27:35;;;;;;;;;;;;;;;13.39;61.89;99415.78;2089749;28;19929;-63
2023/12/27 00:28:37;;;;;;;;;;;;;;;13.40;61.74;99414.81;2091486;28;19944;-64
2023/12/27 00:29:39;;;;;;;;;;;;;;;13.38;61.83;99411.44;2091707;28;19928;-61
2023/12/27 00:30:41;;;;;;;;;;;;;;;13.39;61.87;99411.28;2089952;28;20338;-63
2023/12/27 00:31:41;;;;;;;;;;;;;;;13.38;61.95;99411.44;2091277;28;19927;-62
2023/12/27 00:32:43;;;;;;;;;;;;;;;13.39;61.82;99415.78;2094041;28;20379;-62
2023/12/27 00:33:43;;;;;;;;;;;;;;;13.38;61.86;99417.59;2092406;28;19920;-64
2023/12/27 00:34:44;;;;;;;;;;;;;;;13.38;61.90;99422.09;2089981;28;19924;-62
2023/12/27 00:35:46;;;;;;;;;;;;;;;13.40;61.86;99414.81;2089522;28;19939;-63
2023/12/27 00:36:46;;;;;;;;;;;;;;;13.38;61.96;99414.09;2090918;28;19927;-63
2023/12/27 00:37:48;;;;;;;;;;;;;;;13.39;61.69;99418.44;2090408;28;19967;-64
2023/12/27 00:38:48;;;;;;;;;;;;;;;13.37;61.60;99413.28;2092510;28;19924;-63
2023/12/27 00:39:50;;;;;;;;;;;;;;;13.38;61.72;99412.28;2091620;28;19963;-63
2023/12/27 00:40:50;;;;;;;;;;;;;;;13.39;61.80;99407.78;2092347;28;19921;-64
2023/12/27 00:41:52;;;;;;;;;;;;;;;13.37;61.91;99407.94;2092473;28;19971;-62
2023/12/27 00:42:53;;;;;;;;;;;;;;;13.40;61.83;99409.47;2091825;28;20311;-63
2023/12/27 00:43:53;;;;;;;;;;;;;;;13.39;61.83;99407.78;2089562;28;19963;-63
2023/12/27 00:44:56;;;;;;;;;;;;;;;13.39;61.74;99410.44;2092559;28;19927;-64
2023/12/27 00:45:57;;;;;;;;;;;;;;;13.38;61.84;99412.28;2092406;28;19945;-61
2023/12/27 00:46:59;;;;;;;;;;;;;;;13.37;61.81;99415.94;2091178;28;19934;-62
2023/12/27 00:47:59;;;;;;;;;;;;;;;13.37;61.75;99415.94;2092681;28;19928;-62
2023/12/27 00:49:01;;;;;;;;;;;;;;;13.38;61.74;99412.28;2092059;28;20024;-63
2023/12/27 00:50:02;;;;;;;;;;;;;;;13.38;61.67;99417.59;2092542;28;20276;-62
2023/12/27 00:51:03;;;;;;;;;;;;;;;13.39;61.66;99413.09;2090860;28;19943;-63
2023/12/27 00:52:04;;;;;;;;;;;;;;;13.38;61.67;99408.78;2090298;28;19927;-62
2023/12/27 00:53:05;;;;;;;;;;;;;;;13.38;61.86;99406.09;2092555;28;20291;-62
2023/12/27 00:54:07;;;;;;;;;;;;;;;13.38;61.72;99406.09;2093029;28;20007;-63
2023/12/27 00:55:07;;;;;;;;;;;;;;;13.38;61.67;99406.94;2090093;28;19924;-63
2023/12/27 00:56:09;;;;;;;;;;;;;;;13.38;61.84;99400.78;2091594;28;19967;-63
2023/12/27 00:57:10;;;;;;;;;;;;;;;13.36;61.86;99400.91;2090424;28;19932;-64
2023/12/27 00:58:10;;;;;;;;;;;;;;;13.37;61.89;99405.28;2092125;28;19974;-64
2023/12/27 00:59:12;;;;;;;;;;;;;;;13.37;61.78;99401.75;2089627;28;19974;-63
2023/12/27 01:00:15;;;;;;;;;;;;;;;13.36;61.83;99408.09;2089865;28;19921;-64
2023/12/27 01:01:16;;;;;;;;;;;;;;;13.37;61.78;99405.28;2093025;28;20379;-64
2023/12/27 01:02:17;;;;;;;;;;;;;;;13.36;61.99;99411.56;2090810;28;20383;-63
2023/12/27 01:03:19;;;;;;;;;;;;;;;13.37;61.79;99415.06;2089553;28;19956;-63
2023/12/27 01:04:19;;;;;;;;;;;;;;;13.36;61.83;99410.75;2090710;28;19935;-63
2023/12/27 01:05:21;;;;;;;;;;;;;;;13.36;61.80;99405.41;2089870;28;19956;-64
2023/12/27 01:06:21;;;;;;;;;;;;;;;13.39;61.55;99410.44;2091834;28;19961;-64
2023/12/27 01:07:23;;;;;;;;;;;;;;;13.36;61.76;99411.56;2091251;28;19967;-65
2023/12/27 01:08:24;;;;;;;;;;;;;;;13.37;61.77;99415.94;2089265;28;20525;-63
2023/12/27 01:09:26;;;;;;;;;;;;;;;13.37;61.67;99407.06;2088807;28;19963;-62
2023/12/27 01:10:26;;;;;;;;;;;;;;;13.35;61.81;99409.91;2091792;28;19936;-63
2023/12/27 01:11:28;;;;;;;;;;;;;;;13.36;61.77;99414.25;2087746;28;19924;-63
2023/12/27 01:12:29;;;;;;;;;;;;;;;13.35;61.66;99417.91;2092616;28;19931;-64
2023/12/27 01:13:30;;;;;;;;;;;;;;;13.38;62.07;99416.78;2090753;28;21573;-63
2023/12/27 01:14:31;;;;;;;;;;;;;;;13.37;61.81;99423.06;2091303;28;19943;-63
2023/12/27 01:15:34;;;;;;;;;;;;;;;13.38;61.85;99424.75;2091800;28;20370;-62
2023/12/27 01:16:35;;;;;;;;;;;;;;;13.35;61.92;99425.06;2092649;28;19924;-63
2023/12/27 01:17:35;;;;;;;;;;;;;;;13.34;61.80;99418.03;2092381;28;19921;-63
2023/12/27 01:18:37;;;;;;;;;;;;;;;13.37;61.63;99425.72;2089243;28;19928;-64
2023/12/27 01:19:39;;;;;;;;;;;;;;;13.37;61.75;99426.59;2090731;28;19929;-64
2023/12/27 01:20:40;;;;;;;;;;;;;;;13.37;61.77;99433.72;2089430;28;19925;-64
2023/12/27 01:21:41;;;;;;;;;;;;;;;13.36;61.84;99437.38;2092854;28;19921;-64
2023/12/27 01:22:42;;;;;;;;;;;;;;;13.36;61.96;99440.88;2091282;28;19971;-64
2023/12/27 01:23:43;;;;;;;;;;;;;;;13.35;61.73;99447.22;2088407;28;20291;-63
2023/12/27 01:24:45;;;;;;;;;;;;;;;13.36;61.88;99440.88;2092822;28;19948;-64
2023/12/27 01:25:45;;;;;;;;;;;;;;;13.35;61.73;99433.88;2090570;28;19927;-64
2023/12/27 01:26:47;;;;;;;;;;;;;;;13.37;61.79;99436.38;2090495;28;19955;-63
2023/12/27 01:27:47;;;;;;;;;;;;;;;13.35;61.90;99444.56;2091577;28;19920;-63
2023/12/27 01:28:49;;;;;;;;;;;;;;;13.36;61.67;99440.88;2090762;28;20035;-64
2023/12/27 01:29:49;;;;;;;;;;;;;;;13.35;61.73;99447.22;2091546;28;19928;-64
2023/12/27 01:30:52;;;;;;;;;;;;;;;13.35;62.01;99451.72;2089656;28;19959;-64
2023/12/27 01:31:53;;;;;;;;;;;;;;;13.35;61.90;99454.38;2093148;28;20390;-64
2023/12/27 01:32:55;;;;;;;;;;;;;;;13.35;61.89;99454.38;2091433;28;20018;-64
2023/12/27 01:33:55;;;;;;;;;;;;;;;13.34;61.79;99448.19;2091059;28;20349;-63
2023/12/27 01:34:57;;;;;;;;;;;;;;;13.35;61.68;99452.53;2091243;28;19978;-63
2023/12/27 01:35:57;;;;;;;;;;;;;;;13.36;61.84;99451.53;2085870;28;19935;-62
2023/12/27 01:36:59;;;;;;;;;;;;;;;13.35;61.84;99451.72;2088905;28;19999;-62
2023/12/27 01:37:59;;;;;;;;;;;;;;;13.37;61.79;99450.56;2092811;28;19927;-63
2023/12/27 01:39:01;;;;;;;;;;;;;;;13.37;61.72;99455.03;2091310;28;19956;-62
2023/12/27 01:40:03;;;;;;;;;;;;;;;13.36;61.63;99454.22;2093806;28;19969;-62
2023/12/27 01:41:05;;;;;;;;;;;;;;;13.35;61.89;99452.53;2091250;28;22472;-62
2023/12/27 01:42:05;;;;;;;;;;;;;;;13.34;61.93;99442.03;2090854;28;19920;-63
2023/12/27 01:43:07;;;;;;;;;;;;;;;13.34;61.89;99444.69;2094476;28;19925;-62
2023/12/27 01:44:07;;;;;;;;;;;;;;;13.33;61.64;99445.69;2088175;28;19936;-64
2023/12/27 01:45:09;;;;;;;;;;;;;;;13.34;61.89;99450.00;2090710;28;20361;-62
2023/12/27 01:46:11;;;;;;;;;;;;;;;13.32;61.93;99447.53;2089739;28;19928;-62
2023/12/27 01:47:13;;;;;;;;;;;;;;;13.34;61.68;99444.69;2094095;28;20632;-61
2023/12/27 01:48:15;;;;;;;;;;;;;;;13.33;61.74;99456.34;2091706;28;20425;-61
2023/12/27 01:49:16;;;;;;;;;;;;;;;13.35;61.72;99454.38;2093599;28;19920;-62
2023/12/27 01:50:17;;;;;;;;;;;;;;;13.34;61.94;99452.69;2089000;28;19925;-63
2023/12/27 01:51:19;;;;;;;;;;;;;;;13.37;61.76;99447.91;2089288;28;20490;-63
2023/12/27 01:52:20;;;;;;;;;;;;;;;13.34;61.93;99450.00;2090572;28;19978;-62
2023/12/27 01:53:23;;;;;;;;;;;;;;;13.33;61.81;99459.00;2087014;28;20292;-63
2023/12/27 01:54:24;;;;;;;;;;;;;;;13.33;61.86;99456.34;2090114;28;20312;-62
2023/12/27 01:55:25;;;;;;;;;;;;;;;13.33;61.84;99451.84;2091733;28;19967;-63
2023/12/27 01:56:26;;;;;;;;;;;;;;;13.35;61.90;99449.03;2091750;28;19920;-64
2023/12/27 01:57:27;;;;;;;;;;;;;;;13.33;61.85;99446.53;2091056;28;19974;-62
2023/12/27 01:58:29;;;;;;;;;;;;;;;13.33;61.97;99446.53;2092997;28;19926;-61
2023/12/27 01:59:30;;;;;;;;;;;;;;;13.33;61.70;99445.69;2090976;28;19924;-61
2023/12/27 02:00:32;;;;;;;;;;;;;;;13.35;61.84;99449.03;2091627;28;19921;-63
2023/12/27 02:01:34;;;;;;;;;;;;;;;13.34;61.89;99453.50;2092482;28;19921;-63
2023/12/27 02:02:35;;;;;;;;;;;;;;;13.35;61.68;99451.72;2090723;28;22170;-63
2023/12/27 02:03:36;;;;;;;;;;;;;;;13.33;61.85;99451.84;2092050;28;19927;-62
2023/12/27 02:04:37;;;;;;;;;;;;;;;13.34;61.70;99458.84;2092481;28;20554;-64
2023/12/27 02:05:38;;;;;;;;;;;;;;;13.33;61.72;99457.19;2091271;28;20400;-63
2023/12/27 02:06:40;;;;;;;;;;;;;;;13.34;61.85;99450.84;2091276;28;19955;-63
2023/12/27 02:07:42;;;;;;;;;;;;;;;13.33;61.91;99451.84;2090119;28;19928;-62
2023/12/27 02:08:43;;;;;;;;;;;;;;;13.35;61.94;99446.38;2091326;28;19928;-62
2023/12/27 02:09:45;;;;;;;;;;;;;;;13.33;61.81;99453.69;2089394;28;19928;-64
2023/12/27 02:10:46;;;;;;;;;;;;;;;13.33;61.83;99451.00;2091372;28;19924;-63
2023/12/27 02:11:48;;;;;;;;;;;;;;;13.32;61.97;99454.69;2092962;28;19920;-61
2023/12/27 02:12:48;;;;;;;;;;;;;;;13.33;61.90;99457.19;2091535;28;20764;-62
2023/12/27 02:13:49;;;;;;;;;;;;;;;13.32;61.94;99452.00;2087191;28;19955;-63
2023/12/27 02:14:50;;;;;;;;;;;;;;;13.32;61.89;99454.69;2091728;28;20054;-63
2023/12/27 02:15:52;;;;;;;;;;;;;;;13.32;61.73;99457.34;2090597;28;19920;-63
2023/12/27 02:16:55;;;;;;;;;;;;;;;13.34;61.88;99458.84;2094101;28;20531;-63
2023/12/27 02:17:56;;;;;;;;;;;;;;;13.33;61.75;99454.50;2089968;28;19927;-63
2023/12/27 02:18:59;;;;;;;;;;;;;;;13.33;61.66;99461.66;2092415;28;19932;-62
2023/12/27 02:20:01;;;;;;;;;;;;;;;13.33;61.65;99454.50;2089611;28;19920;-63
2023/12/27 02:21:02;;;;;;;;;;;;;;;13.33;61.92;99456.34;2089754;28;19928;-63
2023/12/27 02:22:03;;;;;;;;;;;;;;;13.34;61.90;99458.00;2090116;28;19920;-62
2023/12/27 02:23:07;;;;;;;;;;;;;;;13.35;61.82;99459.72;2090407;28;19978;-63
2023/12/27 02:24:08;;;;;;;;;;;;;;;13.33;61.63;99454.50;2089641;28;20786;-64
2023/12/27 02:25:11;;;;;;;;;;;;;;;13.33;61.87;99457.19;2089104;28;19928;-63
2023/12/27 02:26:12;;;;;;;;;;;;;;;13.33;61.75;99453.69;2091407;28;20421;-63
2023/12/27 02:27:13;;;;;;;;;;;;;;;13.31;61.77;99456.47;2092632;28;19932;-63
2023/12/27 02:28:14;;;;;;;;;;;;;;;13.30;61.98;99457.47;2091856;28;19920;-62
2023/12/27 02:29:16;;;;;;;;;;;;;;;13.33;61.99;99464.34;2089951;28;20023;-63
2023/12/27 02:30:18;;;;;;;;;;;;;;;13.33;61.93;99461.66;2090776;28;19921;-62
2023/12/27 02:31:19;;;;;;;;;;;;;;;13.33;61.85;99453.69;2092113;28;20035;-64
2023/12/27 02:32:20;;;;;;;;;;;;;;;13.32;61.73;99452.00;2090859;28;19932;-63
2023/12/27 02:33:21;;;;;;;;;;;;;;;13.31;61.92;99448.47;2090774;28;21293;-64
2023/12/27 02:34:22;;;;;;;;;;;;;;;13.32;61.67;99449.34;2090041;28;20327;-63
2023/12/27 02:35:24;;;;;;;;;;;;;;;13.30;61.93;99452.16;2091001;28;19952;-63
2023/12/27 02:36:24;;;;;;;;;;;;;;;13.28;61.99;99458.59;2090855;28;20379;-62
2023/12/27 02:37:25;;;;;;;;;;;;;;;13.32;61.83;99460.00;2089388;28;19966;-63
2023/12/27 02:38:26;;;;;;;;;;;;;;;13.30;61.89;99460.13;2089624;28;19998;-64
2023/12/27 02:39:27;;;;;;;;;;;;;;;13.32;61.77;99462.66;2090262;28;19982;-62
2023/12/27 02:40:30;;;;;;;;;;;;;;;13.31;61.77;99459.13;2089906;28;19924;-63
2023/12/27 02:41:31;;;;;;;;;;;;;;;13.32;61.72;99458.16;2091346;28;20395;-64
2023/12/27 02:42:31;;;;;;;;;;;;;;;13.31;61.68;99460.97;2089758;28;19980;-64
2023/12/27 02:43:33;;;;;;;;;;;;;;;13.30;61.89;99461.97;2092750;28;20318;-61
2023/12/27 02:44:34;;;;;;;;;;;;;;;13.31;61.76;99453.81;2089875;28;19921;-64
2023/12/27 02:45:35;;;;;;;;;;;;;;;13.28;61.96;99454.13;2091139;28;19924;-63
2023/12/27 02:46:36;;;;;;;;;;;;;;;13.30;61.85;99453.97;2090126;28;19931;-64
2023/12/27 02:47:37;;;;;;;;;;;;;;;13.30;61.97;99456.66;2089778;28;19964;-63
2023/12/27 02:48:38;;;;;;;;;;;;;;;13.28;61.89;99453.28;2090071;28;19927;-62
2023/12/27 02:49:40;;;;;;;;;;;;;;;13.30;61.91;99451.31;2091505;28;19963;-62
2023/12/27 02:50:44;;;;;;;;;;;;;;;13.28;62.03;99453.28;2093327;28;19943;-63
2023/12/27 02:51:45;;;;;;;;;;;;;;;13.28;61.89;99454.13;2088910;28;19963;-63
2023/12/27 02:52:46;;;;;;;;;;;;;;;13.31;61.85;99452.97;2091888;28;19929;-63
2023/12/27 02:53:48;;;;;;;;;;;;;;;13.29;61.80;99446.94;2093356;28;20007;-63
2023/12/27 02:54:48;;;;;;;;;;;;;;;13.28;61.70;99451.44;2089719;28;19932;-63
2023/12/27 02:55:50;;;;;;;;;;;;;;;13.27;61.91;99440.97;2091961;28;20402;-62
2023/12/27 02:56:52;;;;;;;;;;;;;;;13.29;61.97;99450.47;2092714;28;19924;-63
2023/12/27 02:57:52;;;;;;;;;;;;;;;13.28;61.69;99453.28;2089616;28;20302;-62
2023/12/27 02:58:53;;;;;;;;;;;;;;;13.29;61.96;99454.94;2089870;28;19964;-63
2023/12/27 02:59:55;;;;;;;;;;;;;;;13.27;61.79;99455.13;2093205;28;19920;-62
2023/12/27 03:00:55;;;;;;;;;;;;;;;13.27;62.04;99446.28;2092355;28;19935;-63
2023/12/27 03:01:57;;;;;;;;;;;;;;;13.26;61.86;99445.47;2092854;28;20046;-63
2023/12/27 03:02:57;;;;;;;;;;;;;;;13.27;61.97;99452.44;2089386;28;19928;-63
2023/12/27 03:03:59;;;;;;;;;;;;;;;13.27;62.08;99448.94;2092962;28;19932;-63
2023/12/27 03:05:00;;;;;;;;;;;;;;;13.27;61.88;99452.44;2092329;28;19921;-64
2023/12/27 03:06:01;;;;;;;;;;;;;;;13.27;61.85;99451.63;2091982;28;20060;-62
2023/12/27 03:07:02;;;;;;;;;;;;;;;13.26;61.73;99442.78;2091382;28;19956;-63
2023/12/27 03:08:03;;;;;;;;;;;;;;;13.28;61.71;99448.78;2091549;28;20413;-63
2023/12/27 03:09:05;;;;;;;;;;;;;;;13.29;61.92;99442.50;2093083;28;19924;-63
2023/12/27 03:10:06;;;;;;;;;;;;;;;13.27;61.85;99435.63;2091534;28;20423;-62
2023/12/27 03:11:09;;;;;;;;;;;;;;;13.27;61.88;99432.97;2090759;28;19928;-63
2023/12/27 03:12:10;;;;;;;;;;;;;;;13.26;61.85;99432.13;2090105;28;20053;-63
2023/12/27 03:13:11;;;;;;;;;;;;;;;13.27;61.83;99431.13;2090618;28;20449;-63
2023/12/27 03:14:12;;;;;;;;;;;;;;;13.29;61.67;99436.28;2090133;28;19924;-63
2023/12/27 03:15:14;;;;;;;;;;;;;;;13.31;61.81;99431.66;2091132;28;19964;-63
2023/12/27 03:16:17;;;;;;;;;;;;;;;13.30;61.85;99436.16;2091765;28;20521;-63
2023/12/27 03:17:19;;;;;;;;;;;;;;;13.27;61.91;99436.47;2092233;28;20553;-62
2023/12/27 03:18:19;;;;;;;;;;;;;;;13.29;61.73;99430.97;2092905;28;19926;-63
2023/12/27 03:19:21;;;;;;;;;;;;;;;13.26;61.93;99434.78;2089715;28;20006;-62
2023/12/27 03:20:22;;;;;;;;;;;;;;;13.27;61.66;99431.13;2092786;28;19928;-62
2023/12/27 03:21:23;;;;;;;;;;;;;;;13.28;61.92;99438.13;2091287;28;19974;-63
2023/12/27 03:22:24;;;;;;;;;;;;;;;13.28;61.75;99439.97;2091084;28;19928;-63
2023/12/27 03:23:25;;;;;;;;;;;;;;;13.29;61.89;99442.50;2094416;28;19931;-63
2023/12/27 03:24:26;;;;;;;;;;;;;;;13.29;61.78;99447.81;2089519;28;19924;-64
2023/12/27 03:25:28;;;;;;;;;;;;;;;13.27;62.05;99446.28;2091618;28;19925;-63
2023/12/27 03:26:30;;;;;;;;;;;;;;;13.27;61.70;99448.94;2092935;28;19920;-63
2023/12/27 03:27:31;;;;;;;;;;;;;;;13.27;61.84;99447.13;2091141;28;20391;-62
2023/12/27 03:28:32;;;;;;;;;;;;;;;13.27;61.90;99451.63;2093807;28;19920;-63
2023/12/27 03:29:33;;;;;;;;;;;;;;;13.26;61.65;99453.44;2093839;28;20399;-64
2023/12/27 03:30:34;;;;;;;;;;;;;;;13.26;61.91;99449.91;2092160;28;19932;-64
2023/12/27 03:31:35;;;;;;;;;;;;;;;13.27;61.76;99456.94;2093233;28;20399;-64
2023/12/27 03:32:36;;;;;;;;;;;;;;;13.26;61.71;99456.13;2092870;28;19921;-64
2023/12/27 03:33:37;;;;;;;;;;;;;;;13.28;61.86;99454.13;2092942;28;19978;-62
2023/12/27 03:34:39;;;;;;;;;;;;;;;13.28;61.87;99456.78;2091340;28;19928;-62
2023/12/27 03:35:39;;;;;;;;;;;;;;;13.28;61.75;99455.94;2092877;28;20347;-62
2023/12/27 03:36:41;;;;;;;;;;;;;;;13.29;61.75;99455.81;2092798;28;19928;-62
2023/12/27 03:37:42;;;;;;;;;;;;;;;13.29;61.80;99449.63;2095840;28;19927;-63
2023/12/27 03:38:43;;;;;;;;;;;;;;;13.28;61.91;99448.78;2090578;28;19968;-61
2023/12/27 03:39:44;;;;;;;;;;;;;;;13.28;61.91;99454.13;2091160;28;19927;-63
2023/12/27 03:40:46;;;;;;;;;;;;;;;13.29;61.80;99457.63;2094359;28;20344;-63
2023/12/27 03:41:48;;;;;;;;;;;;;;;13.29;61.79;99460.28;2094917;28;19920;-63
2023/12/27 03:42:49;;;;;;;;;;;;;;;13.26;62.00;99461.44;2093461;28;19920;-61
2023/12/27 03:43:50;;;;;;;;;;;;;;;13.26;61.66;99457.91;2093603;28;20322;-62
2023/12/27 03:44:52;;;;;;;;;;;;;;;13.26;61.82;99456.13;2092298;28;19964;-62
2023/12/27 03:45:54;;;;;;;;;;;;;;;13.27;61.58;99454.28;2093783;28;20348;-61
2023/12/27 03:46:56;;;;;;;;;;;;;;;13.26;61.74;99455.25;2091494;28;19960;-63
2023/12/27 03:47:56;;;;;;;;;;;;;;;13.28;61.86;99455.94;2093688;28;19921;-62
2023/12/27 03:48:58;;;;;;;;;;;;;;;13.27;61.67;99456.94;2093147;28;19924;-63
2023/12/27 03:49:58;;;;;;;;;;;;;;;13.28;61.87;99462.09;2092463;28;19931;-63
2023/12/27 03:51:00;;;;;;;;;;;;;;;13.25;61.86;99461.53;2093389;28;19964;-63
2023/12/27 03:52:00;;;;;;;;;;;;;;;13.26;61.86;99461.44;2091947;28;19925;-63
2023/12/27 03:53:02;;;;;;;;;;;;;;;13.28;61.52;99459.44;2090749;28;19959;-62
2023/12/27 03:54:03;;;;;;;;;;;;;;;13.28;61.88;99463.94;2092949;28;19928;-63
2023/12/27 03:55:04;;;;;;;;;;;;;;;13.26;61.70;99461.44;2092104;28;20047;-62
2023/12/27 03:56:09;;;;;;;;;;;;;;;13.26;61.88;99466.78;2094180;28;19925;-63
2023/12/27 03:57:11;;;;;;;;;;;;;;;13.25;61.83;99465.03;2094752;28;19924;-63
2023/12/27 03:58:13;;;;;;;;;;;;;;;13.25;62.00;99464.22;2092990;28;19936;-64
2023/12/27 03:59:14;;;;;;;;;;;;;;;13.26;61.92;99465.91;2092279;28;19995;-63
2023/12/27 04:00:15;;;;;;;;;;;;;;;13.25;61.96;99469.53;2093757;28;20058;-63
2023/12/27 04:01:19;;;;;;;;;;;;;;;13.27;61.75;99472.94;2090799;28;20316;-64
2023/12/27 04:02:20;;;;;;;;;;;;;;;13.27;61.88;99467.59;2092928;28;19920;-64
2023/12/27 04:03:22;;;;;;;;;;;;;;;13.27;61.85;99467.59;2093483;28;20381;-64
2023/12/27 04:04:22;;;;;;;;;;;;;;;13.24;61.98;99462.53;2091090;28;19967;-62
2023/12/27 04:05:24;;;;;;;;;;;;;;;13.24;61.76;99463.38;2091373;28;19920;-64
2023/12/27 04:06:24;;;;;;;;;;;;;;;13.25;61.77;99464.22;2093094;28;19935;-63
2023/12/27 04:07:26;;;;;;;;;;;;;;;13.27;61.71;99462.28;2091103;28;19963;-64
2023/12/27 04:08:27;;;;;;;;;;;;;;;13.25;61.88;99456.22;2094368;28;19968;-64
2023/12/27 04:09:28;;;;;;;;;;;;;;;13.24;61.93;99466.03;2092352;28;19920;-62
2023/12/27 04:10:31;;;;;;;;;;;;;;;13.25;61.78;99464.22;2091685;28;19966;-63
2023/12/27 04:11:32;;;;;;;;;;;;;;;13.26;61.74;99465.91;2090567;28;19963;-63
2023/12/27 04:12:35;;;;;;;;;;;;;;;13.25;61.76;99461.53;2092800;28;20011;-64
2023/12/27 04:13:36;;;;;;;;;;;;;;;13.23;61.80;99464.34;2091198;28;20295;-64
2023/12/27 04:14:37;;;;;;;;;;;;;;;13.25;61.73;99462.38;2093389;28;19963;-64
2023/12/27 04:15:38;;;;;;;;;;;;;;;13.26;61.70;99464.09;2088569;28;20406;-64
2023/12/27 04:16:38;;;;;;;;;;;;;;;13.25;61.91;99466.88;2095050;28;19956;-64
2023/12/27 04:17:40;;;;;;;;;;;;;;;13.25;61.86;99469.53;2093221;28;19986;-64
2023/12/27 04:18:41;;;;;;;;;;;;;;;13.26;61.71;99471.22;2092787;28;19921;-63
2023/12/27 04:19:42;;;;;;;;;;;;;;;13.26;61.90;99469.44;2090725;28;19924;-64
2023/12/27 04:20:43;;;;;;;;;;;;;;;13.24;61.94;99468.69;2092759;28;19936;-64
2023/12/27 04:21:44;;;;;;;;;;;;;;;13.27;61.70;99467.59;2092524;28;20365;-62
2023/12/27 04:22:45;;;;;;;;;;;;;;;13.26;61.71;99460.56;2093467;28;20391;-62
2023/12/27 04:23:47;;;;;;;;;;;;;;;13.25;61.85;99464.22;2093183;28;19924;-64
2023/12/27 04:24:47;;;;;;;;;;;;;;;13.27;61.55;99465.78;2092279;28;20406;-63
2023/12/27 04:25:48;;;;;;;;;;;;;;;13.27;61.76;99465.78;2092681;28;19921;-61
2023/12/27 04:26:49;;;;;;;;;;;;;;;13.25;61.73;99462.38;2095287;28;19932;-64
2023/12/27 04:27:51;;;;;;;;;;;;;;;13.24;61.88;99463.38;2091253;28;20363;-64
2023/12/27 04:28:53;;;;;;;;;;;;;;;13.26;61.67;99465.91;2091298;28;19921;-64
2023/12/27 04:29:54;;;;;;;;;;;;;;;13.25;61.65;99469.53;2091530;28;19991;-63
2023/12/27 04:30:54;;;;;;;;;;;;;;;13.24;62.00;99470.53;2092116;28;20054;-62
2023/12/27 04:31:56;;;;;;;;;;;;;;;13.25;61.80;99470.38;2094228;28;19920;-62
2023/12/27 04:32:56;;;;;;;;;;;;;;;13.24;61.75;99462.53;2091774;28;19921;-64
2023/12/27 04:33:58;;;;;;;;;;;;;;;13.24;61.66;99473.19;2093146;28;20265;-62
2023/12/27 04:34:59;;;;;;;;;;;;;;;13.24;62.05;99467.88;2089956;28;19928;-62
2023/12/27 04:36:00;;;;;;;;;;;;;;;13.24;61.96;99470.53;2092802;28;20361;-61
2023/12/27 04:37:02;;;;;;;;;;;;;;;13.22;61.87;99475.16;2091782;28;19925;-62
2023/12/27 04:38:03;;;;;;;;;;;;;;;13.24;61.74;99473.19;2092373;28;19924;-63
2023/12/27 04:39:03;;;;;;;;;;;;;;;13.24;61.81;99474.03;2090187;28;20011;-63
2023/12/27 04:40:06;;;;;;;;;;;;;;;13.25;61.64;99480.19;2090730;28;19947;-63
2023/12/27 04:41:07;;;;;;;;;;;;;;;13.23;61.70;99474.16;2090354;28;21287;-63
2023/12/27 04:42:08;;;;;;;;;;;;;;;13.19;61.99;99479.78;2092594;28;19924;-64
2023/12/27 04:43:10;;;;;;;;;;;;;;;13.24;61.88;99478.53;2090073;28;19924;-63
2023/12/27 04:44:11;;;;;;;;;;;;;;;13.25;61.83;99480.19;2090648;28;20015;-63
2023/12/27 04:45:12;;;;;;;;;;;;;;;13.24;61.86;99481.19;2093509;28;20373;-64
2023/12/27 04:46:13;;;;;;;;;;;;;;;13.24;61.71;99490.00;2092467;28;19925;-64
2023/12/27 04:47:14;;;;;;;;;;;;;;;13.22;61.83;99483.16;2093009;28;20521;-64
2023/12/27 04:48:15;;;;;;;;;;;;;;;13.23;61.67;99492.81;2091238;28;20384;-63
2023/12/27 04:49:17;;;;;;;;;;;;;;;13.22;61.92;99493.81;2091944;28;19960;-62
2023/12/27 04:50:17;;;;;;;;;;;;;;;13.23;61.89;99492.81;2093915;28;19935;-63
2023/12/27 04:51:20;;;;;;;;;;;;;;;13.24;61.95;99494.50;2091611;28;20003;-64
2023/12/27 04:52:21;;;;;;;;;;;;;;;13.24;61.85;99494.50;2093093;28;19921;-64
2023/12/27 04:53:22;;;;;;;;;;;;;;;13.24;61.69;99494.50;2091516;28;19935;-62
2023/12/27 04:54:23;;;;;;;;;;;;;;;13.20;61.74;99499.28;2090684;28;19924;-63
2023/12/27 04:55:25;;;;;;;;;;;;;;;13.18;61.93;99502.09;2091891;28;19930;-62
2023/12/27 04:56:25;;;;;;;;;;;;;;;13.22;61.82;99507.13;2092605;28;19920;-63
2023/12/27 04:57:27;;;;;;;;;;;;;;;13.23;61.86;99506.97;2094022;28;19920;-63
2023/12/27 04:58:29;;;;;;;;;;;;;;;13.25;61.77;99506.84;2091817;28;19924;-63
2023/12/27 04:59:31;;;;;;;;;;;;;;;13.24;61.80;99505.16;2093690;28;20399;-64
2023/12/27 05:00:31;;;;;;;;;;;;;;;13.24;61.65;99518.47;2090371;28;19960;-63
2023/12/27 05:01:33;;;;;;;;;;;;;;;13.24;61.76;99521.97;2090432;28;19928;-63
2023/12/27 05:02:33;;;;;;;;;;;;;;;13.23;61.71;99514.97;2096112;28;19931;-63
2023/12/27 05:03:37;;;;;;;;;;;;;;;13.22;61.64;99513.28;2092943;28;20371;-61
2023/12/27 05:04:38;;;;;;;;;;;;;;;13.21;61.90;99519.63;2088525;28;19928;-64
2023/12/27 05:05:40;;;;;;;;;;;;;;;13.19;61.77;99522.41;2090903;28;19924;-63
2023/12/27 05:06:41;;;;;;;;;;;;;;;13.22;61.93;99529.28;2093294;28;19956;-63
2023/12/27 05:07:42;;;;;;;;;;;;;;;13.21;61.90;99524.94;2090563;28;20007;-64
2023/12/27 05:08:43;;;;;;;;;;;;;;;13.23;61.70;99527.44;2090324;28;19935;-63
2023/12/27 05:09:44;;;;;;;;;;;;;;;13.21;61.95;99524.09;2091075;28;20019;-62
2023/12/27 05:10:45;;;;;;;;;;;;;;;13.23;61.94;99522.13;2092099;28;19920;-62
2023/12/27 05:11:47;;;;;;;;;;;;;;;13.22;61.83;99525.78;2093138;28;20379;-63
2023/12/27 05:12:48;;;;;;;;;;;;;;;13.23;61.86;99519.44;2093571;28;19928;-63
2023/12/27 05:13:51;;;;;;;;;;;;;;;13.21;61.92;99524.94;2091755;28;19924;-62
2023/12/27 05:14:52;;;;;;;;;;;;;;;13.21;61.94;99527.59;2091153;28;20295;-63
2023/12/27 05:15:52;;;;;;;;;;;;;;;13.22;61.97;99534.59;2090779;28;20003;-63
2023/12/27 05:16:55;;;;;;;;;;;;;;;13.20;61.96;99531.25;2091918;28;19927;-64
2023/12/27 05:17:55;;;;;;;;;;;;;;;13.19;61.74;99534.91;2092432;28;19959;-64
2023/12/27 05:18:57;;;;;;;;;;;;;;;13.19;61.87;99530.41;2092241;28;20415;-63